sensor_id;sensor_type;location;lat;lon;timestamp;P1;durP1;ratioP1;P2;durP2;ratioP2
2289;SDS011;1153;47.986;7.898;2022-08-19T00:02:03;7.03;;;6.63;;
2289;SDS011;1153;47.986;7.898;2022-08-19T00:04:33;7.43;;;7.13;;
2289;SDS011;1153;47.986;7.898;2022-08-19T00:07:01;7.10;;;6.80;;
2289;SDS011;1153;47.986;7.898;2022-08-19T00:09:26;7.27;;;6.97;;
2289;SDS011;1153;47.986;7.898;2022-08-19T00:11:52;6.93;;;6.53;;
2289;SDS011;1153;47.986;7.898;2022-08-19T00:14:18;6.87;;;6.43;;
2289;SDS011;1153;47.986;7.898;2022-08-19T00:16:45;6.73;;;6.37;;
2289;SDS011;1153;47.986;7.898;2022-08-19T00:19:10;6.23;;;5.93;;
2289;SDS011;1153;47.986;7.898;2022-08-19T00:21:35;8.57;;;7.40;;
2289;SDS011;1153;47.986;7.898;2022-08-19T00:24:04;8.87;;;8.23;;
2289;SDS011;1153;47.986;7.898;2022-08-19T00:26:30;7.37;;;6.90;;
2289;SDS011;1153;47.986;7.898;2022-08-19T00:28:55;8.00;;;7.43;;
2289;SDS011;1153;47.986;7.898;2022-08-19T00:31:21;8.63;;;8.07;;
2289;SDS011;1153;47.986;7.898;2022-08-19T00:33:46;7.43;;;7.03;;
2289;SDS011;1153;47.986;7.898;2022-08-19T00:36:12;8.40;;;7.93;;
2289;SDS011;1153;47.986;7.898;2022-08-19T00:38:38;8.07;;;7.67;;
2289;SDS011;1153;47.986;7.898;2022-08-19T00:41:08;7.57;;;7.20;;
2289;SDS011;1153;47.986;7.898;2022-08-19T00:43:34;8.17;;;7.10;;
2289;SDS011;1153;47.986;7.898;2022-08-19T00:45:59;8.10;;;7.67;;
2289;SDS011;1153;47.986;7.898;2022-08-19T00:48:27;10.03;;;9.33;;
2289;SDS011;1153;47.986;7.898;2022-08-19T00:50:53;7.40;;;7.00;;
2289;SDS011;1153;47.986;7.898;2022-08-19T00:53:20;8.67;;;8.20;;
2289;SDS011;1153;47.986;7.898;2022-08-19T00:55:46;8.33;;;7.53;;
2289;SDS011;1153;47.986;7.898;2022-08-19T00:58:13;7.90;;;7.00;;
2289;SDS011;1153;47.986;7.898;2022-08-19T01:00:40;9.50;;;8.90;;
2289;SDS011;1153;47.986;7.898;2022-08-19T01:03:09;8.37;;;7.87;;
2289;SDS011;1153;47.986;7.898;2022-08-19T01:05:34;7.90;;;7.50;;
2289;SDS011;1153;47.986;7.898;2022-08-19T01:08:00;11.87;;;8.73;;
2289;SDS011;1153;47.986;7.898;2022-08-19T01:10:27;7.77;;;7.37;;
2289;SDS011;1153;47.986;7.898;2022-08-19T01:12:53;8.27;;;7.87;;
2289;SDS011;1153;47.986;7.898;2022-08-19T01:15:21;9.67;;;8.87;;
2289;SDS011;1153;47.986;7.898;2022-08-19T01:17:47;9.50;;;8.60;;
2289;SDS011;1153;47.986;7.898;2022-08-19T01:20:15;8.17;;;7.77;;
2289;SDS011;1153;47.986;7.898;2022-08-19T01:22:48;9.20;;;8.50;;
2289;SDS011;1153;47.986;7.898;2022-08-19T01:25:15;8.13;;;7.73;;
2289;SDS011;1153;47.986;7.898;2022-08-19T01:27:42;7.53;;;7.10;;
2289;SDS011;1153;47.986;7.898;2022-08-19T01:30:08;11.23;;;10.17;;
2289;SDS011;1153;47.986;7.898;2022-08-19T01:32:34;8.57;;;8.10;;
2289;SDS011;1153;47.986;7.898;2022-08-19T01:35:00;9.17;;;8.50;;
2289;SDS011;1153;47.986;7.898;2022-08-19T01:37:26;9.37;;;8.73;;
2289;SDS011;1153;47.986;7.898;2022-08-19T01:39:51;9.90;;;9.20;;
2289;SDS011;1153;47.986;7.898;2022-08-19T01:42:17;8.20;;;7.60;;
2289;SDS011;1153;47.986;7.898;2022-08-19T01:44:42;8.97;;;8.13;;
2289;SDS011;1153;47.986;7.898;2022-08-19T01:47:07;8.80;;;8.30;;
2289;SDS011;1153;47.986;7.898;2022-08-19T01:49:34;9.50;;;8.73;;
2289;SDS011;1153;47.986;7.898;2022-08-19T01:51:59;10.00;;;9.00;;
2289;SDS011;1153;47.986;7.898;2022-08-19T01:54:24;9.73;;;9.07;;
2289;SDS011;1153;47.986;7.898;2022-08-19T01:56:51;8.27;;;7.67;;
2289;SDS011;1153;47.986;7.898;2022-08-19T01:59:17;7.40;;;7.00;;
2289;SDS011;1153;47.986;7.898;2022-08-19T02:01:43;7.60;;;7.13;;
2289;SDS011;1153;47.986;7.898;2022-08-19T02:04:09;8.10;;;7.40;;
2289;SDS011;1153;47.986;7.898;2022-08-19T02:06:34;9.67;;;9.00;;
2289;SDS011;1153;47.986;7.898;2022-08-19T02:08:59;9.37;;;8.57;;
2289;SDS011;1153;47.986;7.898;2022-08-19T02:11:27;8.67;;;8.17;;
2289;SDS011;1153;47.986;7.898;2022-08-19T02:13:53;8.47;;;7.80;;
2289;SDS011;1153;47.986;7.898;2022-08-19T02:16:19;9.70;;;9.20;;
2289;SDS011;1153;47.986;7.898;2022-08-19T02:18:44;8.90;;;8.37;;
2289;SDS011;1153;47.986;7.898;2022-08-19T02:21:10;9.30;;;8.80;;
2289;SDS011;1153;47.986;7.898;2022-08-19T02:23:35;9.87;;;9.20;;
2289;SDS011;1153;47.986;7.898;2022-08-19T02:26:01;8.40;;;7.80;;
2289;SDS011;1153;47.986;7.898;2022-08-19T02:28:26;13.57;;;9.13;;
2289;SDS011;1153;47.986;7.898;2022-08-19T02:30:51;10.80;;;9.87;;
2289;SDS011;1153;47.986;7.898;2022-08-19T02:33:16;10.93;;;10.30;;
2289;SDS011;1153;47.986;7.898;2022-08-19T02:35:45;10.00;;;9.30;;
2289;SDS011;1153;47.986;7.898;2022-08-19T02:38:11;9.97;;;9.20;;
2289;SDS011;1153;47.986;7.898;2022-08-19T02:41:06;9.03;;;8.53;;
2289;SDS011;1153;47.986;7.898;2022-08-19T02:43:32;11.20;;;10.40;;
2289;SDS011;1153;47.986;7.898;2022-08-19T02:46:01;10.70;;;10.10;;
2289;SDS011;1153;47.986;7.898;2022-08-19T02:48:26;9.57;;;8.77;;
2289;SDS011;1153;47.986;7.898;2022-08-19T02:50:52;11.33;;;10.50;;
2289;SDS011;1153;47.986;7.898;2022-08-19T02:53:19;10.10;;;9.50;;
2289;SDS011;1153;47.986;7.898;2022-08-19T02:55:47;8.40;;;8.00;;
2289;SDS011;1153;47.986;7.898;2022-08-19T02:58:12;9.30;;;8.60;;
2289;SDS011;1153;47.986;7.898;2022-08-19T03:00:42;11.73;;;8.50;;
2289;SDS011;1153;47.986;7.898;2022-08-19T03:03:08;10.50;;;9.60;;
2289;SDS011;1153;47.986;7.898;2022-08-19T03:05:33;12.27;;;11.40;;
2289;SDS011;1153;47.986;7.898;2022-08-19T03:07:59;12.30;;;11.10;;
2289;SDS011;1153;47.986;7.898;2022-08-19T03:10:24;12.27;;;10.67;;
2289;SDS011;1153;47.986;7.898;2022-08-19T03:12:49;12.00;;;10.07;;
2289;SDS011;1153;47.986;7.898;2022-08-19T03:15:14;8.77;;;8.17;;
2289;SDS011;1153;47.986;7.898;2022-08-19T03:17:40;10.53;;;9.83;;
2289;SDS011;1153;47.986;7.898;2022-08-19T03:20:05;11.20;;;10.40;;
2289;SDS011;1153;47.986;7.898;2022-08-19T03:22:31;9.57;;;8.97;;
2289;SDS011;1153;47.986;7.898;2022-08-19T03:24:56;9.07;;;8.57;;
2289;SDS011;1153;47.986;7.898;2022-08-19T03:27:21;9.00;;;8.50;;
2289;SDS011;1153;47.986;7.898;2022-08-19T03:29:47;8.90;;;8.40;;
2289;SDS011;1153;47.986;7.898;2022-08-19T03:32:12;10.67;;;9.87;;
2289;SDS011;1153;47.986;7.898;2022-08-19T03:34:38;12.03;;;10.80;;
2289;SDS011;1153;47.986;7.898;2022-08-19T03:37:05;10.87;;;10.17;;
2289;SDS011;1153;47.986;7.898;2022-08-19T03:39:31;11.00;;;10.20;;
2289;SDS011;1153;47.986;7.898;2022-08-19T03:41:56;11.57;;;10.87;;
2289;SDS011;1153;47.986;7.898;2022-08-19T03:44:24;9.40;;;8.90;;
2289;SDS011;1153;47.986;7.898;2022-08-19T03:46:50;10.27;;;9.60;;
2289;SDS011;1153;47.986;7.898;2022-08-19T03:49:16;11.93;;;10.87;;
2289;SDS011;1153;47.986;7.898;2022-08-19T03:51:42;11.23;;;10.30;;
2289;SDS011;1153;47.986;7.898;2022-08-19T03:54:09;10.30;;;9.67;;
2289;SDS011;1153;47.986;7.898;2022-08-19T03:56:35;9.70;;;9.00;;
2289;SDS011;1153;47.986;7.898;2022-08-19T03:59:00;10.80;;;9.80;;
2289;SDS011;1153;47.986;7.898;2022-08-19T04:01:27;11.03;;;10.13;;
2289;SDS011;1153;47.986;7.898;2022-08-19T04:03:52;10.43;;;9.20;;
2289;SDS011;1153;47.986;7.898;2022-08-19T04:06:22;12.03;;;11.13;;
2289;SDS011;1153;47.986;7.898;2022-08-19T04:08:48;10.63;;;9.93;;
2289;SDS011;1153;47.986;7.898;2022-08-19T04:11:16;15.43;;;11.93;;
2289;SDS011;1153;47.986;7.898;2022-08-19T04:13:41;10.50;;;9.80;;
2289;SDS011;1153;47.986;7.898;2022-08-19T04:16:08;10.73;;;9.93;;
2289;SDS011;1153;47.986;7.898;2022-08-19T04:18:35;9.50;;;8.83;;
2289;SDS011;1153;47.986;7.898;2022-08-19T04:21:00;10.07;;;9.47;;
2289;SDS011;1153;47.986;7.898;2022-08-19T04:23:25;9.07;;;8.40;;
2289;SDS011;1153;47.986;7.898;2022-08-19T04:25:52;9.23;;;8.60;;
2289;SDS011;1153;47.986;7.898;2022-08-19T04:28:17;11.30;;;10.57;;
2289;SDS011;1153;47.986;7.898;2022-08-19T04:30:43;11.13;;;10.23;;
2289;SDS011;1153;47.986;7.898;2022-08-19T04:33:09;11.40;;;10.60;;
2289;SDS011;1153;47.986;7.898;2022-08-19T04:35:36;10.10;;;9.50;;
2289;SDS011;1153;47.986;7.898;2022-08-19T04:38:02;9.20;;;8.60;;
2289;SDS011;1153;47.986;7.898;2022-08-19T04:40:27;10.43;;;9.60;;
2289;SDS011;1153;47.986;7.898;2022-08-19T04:43:11;13.00;;;11.90;;
2289;SDS011;1153;47.986;7.898;2022-08-19T04:45:39;9.93;;;9.13;;
2289;SDS011;1153;47.986;7.898;2022-08-19T04:48:05;11.90;;;10.63;;
2289;SDS011;1153;47.986;7.898;2022-08-19T04:50:30;13.17;;;12.03;;
2289;SDS011;1153;47.986;7.898;2022-08-19T04:52:55;12.43;;;11.30;;
2289;SDS011;1153;47.986;7.898;2022-08-19T04:55:21;11.23;;;10.43;;
2289;SDS011;1153;47.986;7.898;2022-08-19T04:57:46;13.07;;;12.17;;
2289;SDS011;1153;47.986;7.898;2022-08-19T05:00:11;13.67;;;12.20;;
2289;SDS011;1153;47.986;7.898;2022-08-19T05:02:37;13.37;;;11.90;;
2289;SDS011;1153;47.986;7.898;2022-08-19T05:05:02;13.60;;;12.40;;
2289;SDS011;1153;47.986;7.898;2022-08-19T05:07:28;13.10;;;11.20;;
2289;SDS011;1153;47.986;7.898;2022-08-19T05:09:54;11.17;;;10.30;;
2289;SDS011;1153;47.986;7.898;2022-08-19T05:12:20;12.67;;;11.67;;
2289;SDS011;1153;47.986;7.898;2022-08-19T05:14:45;13.70;;;12.53;;
2289;SDS011;1153;47.986;7.898;2022-08-19T05:17:12;12.37;;;11.37;;
2289;SDS011;1153;47.986;7.898;2022-08-19T05:19:37;12.07;;;11.17;;
2289;SDS011;1153;47.986;7.898;2022-08-19T05:22:21;14.30;;;12.90;;
2289;SDS011;1153;47.986;7.898;2022-08-19T05:25:01;12.30;;;11.23;;
2289;SDS011;1153;47.986;7.898;2022-08-19T05:27:26;11.53;;;10.70;;
2289;SDS011;1153;47.986;7.898;2022-08-19T05:29:51;12.60;;;11.57;;
2289;SDS011;1153;47.986;7.898;2022-08-19T05:32:17;13.90;;;12.60;;
2289;SDS011;1153;47.986;7.898;2022-08-19T05:34:42;11.83;;;11.00;;
2289;SDS011;1153;47.986;7.898;2022-08-19T05:37:07;12.03;;;11.17;;
2289;SDS011;1153;47.986;7.898;2022-08-19T05:39:34;12.43;;;11.40;;
2289;SDS011;1153;47.986;7.898;2022-08-19T05:42:00;14.13;;;12.83;;
2289;SDS011;1153;47.986;7.898;2022-08-19T05:44:27;11.83;;;10.83;;
2289;SDS011;1153;47.986;7.898;2022-08-19T05:46:52;14.80;;;13.40;;
2289;SDS011;1153;47.986;7.898;2022-08-19T05:49:18;13.47;;;12.10;;
2289;SDS011;1153;47.986;7.898;2022-08-19T05:51:43;12.17;;;11.03;;
2289;SDS011;1153;47.986;7.898;2022-08-19T05:54:09;13.37;;;11.37;;
2289;SDS011;1153;47.986;7.898;2022-08-19T05:56:36;13.33;;;12.13;;
2289;SDS011;1153;47.986;7.898;2022-08-19T05:59:03;12.70;;;11.77;;
2289;SDS011;1153;47.986;7.898;2022-08-19T06:01:29;15.40;;;14.07;;
2289;SDS011;1153;47.986;7.898;2022-08-19T06:03:54;20.87;;;13.70;;
2289;SDS011;1153;47.986;7.898;2022-08-19T06:06:19;15.10;;;13.53;;
2289;SDS011;1153;47.986;7.898;2022-08-19T06:08:45;15.43;;;14.00;;
2289;SDS011;1153;47.986;7.898;2022-08-19T06:11:20;13.80;;;12.40;;
2289;SDS011;1153;47.986;7.898;2022-08-19T06:13:45;13.10;;;11.97;;
2289;SDS011;1153;47.986;7.898;2022-08-19T06:16:12;13.53;;;12.50;;
2289;SDS011;1153;47.986;7.898;2022-08-19T06:18:44;14.70;;;13.33;;
2289;SDS011;1153;47.986;7.898;2022-08-19T06:21:10;13.70;;;12.50;;
2289;SDS011;1153;47.986;7.898;2022-08-19T06:23:35;13.10;;;11.47;;
2289;SDS011;1153;47.986;7.898;2022-08-19T06:26:00;14.93;;;11.40;;
2289;SDS011;1153;47.986;7.898;2022-08-19T06:28:25;13.47;;;12.27;;
2289;SDS011;1153;47.986;7.898;2022-08-19T06:30:51;15.60;;;12.13;;
2289;SDS011;1153;47.986;7.898;2022-08-19T06:33:16;13.30;;;11.93;;
2289;SDS011;1153;47.986;7.898;2022-08-19T06:35:41;13.63;;;12.23;;
2289;SDS011;1153;47.986;7.898;2022-08-19T06:38:06;17.17;;;13.23;;
2289;SDS011;1153;47.986;7.898;2022-08-19T06:40:32;15.03;;;13.50;;
2289;SDS011;1153;47.986;7.898;2022-08-19T06:42:57;13.10;;;11.83;;
2289;SDS011;1153;47.986;7.898;2022-08-19T06:45:24;14.80;;;13.33;;
2289;SDS011;1153;47.986;7.898;2022-08-19T06:47:49;14.27;;;13.17;;
2289;SDS011;1153;47.986;7.898;2022-08-19T06:50:16;14.13;;;12.73;;
2289;SDS011;1153;47.986;7.898;2022-08-19T06:52:41;17.03;;;12.80;;
2289;SDS011;1153;47.986;7.898;2022-08-19T06:55:07;13.37;;;12.37;;
2289;SDS011;1153;47.986;7.898;2022-08-19T06:57:32;16.67;;;13.63;;
2289;SDS011;1153;47.986;7.898;2022-08-19T06:59:58;12.80;;;11.80;;
2289;SDS011;1153;47.986;7.898;2022-08-19T07:02:25;13.60;;;12.53;;
2289;SDS011;1153;47.986;7.898;2022-08-19T07:04:51;13.20;;;11.93;;
2289;SDS011;1153;47.986;7.898;2022-08-19T07:07:17;12.40;;;11.40;;
2289;SDS011;1153;47.986;7.898;2022-08-19T07:09:43;12.67;;;11.63;;
2289;SDS011;1153;47.986;7.898;2022-08-19T07:12:09;14.00;;;12.47;;
2289;SDS011;1153;47.986;7.898;2022-08-19T07:14:36;13.57;;;12.47;;
2289;SDS011;1153;47.986;7.898;2022-08-19T07:17:05;12.77;;;11.70;;
2289;SDS011;1153;47.986;7.898;2022-08-19T07:19:30;13.37;;;12.30;;
2289;SDS011;1153;47.986;7.898;2022-08-19T07:21:56;14.10;;;12.97;;
2289;SDS011;1153;47.986;7.898;2022-08-19T07:24:23;13.37;;;12.20;;
2289;SDS011;1153;47.986;7.898;2022-08-19T07:26:49;14.97;;;13.57;;
2289;SDS011;1153;47.986;7.898;2022-08-19T07:29:15;14.00;;;12.90;;
2289;SDS011;1153;47.986;7.898;2022-08-19T07:31:41;13.70;;;12.50;;
2289;SDS011;1153;47.986;7.898;2022-08-19T07:34:07;12.13;;;10.77;;
2289;SDS011;1153;47.986;7.898;2022-08-19T07:36:33;13.53;;;12.13;;
2289;SDS011;1153;47.986;7.898;2022-08-19T07:39:00;15.00;;;13.90;;
2289;SDS011;1153;47.986;7.898;2022-08-19T07:41:27;16.30;;;14.83;;
2289;SDS011;1153;47.986;7.898;2022-08-19T07:43:53;14.73;;;13.13;;
2289;SDS011;1153;47.986;7.898;2022-08-19T07:46:19;16.90;;;15.43;;
2289;SDS011;1153;47.986;7.898;2022-08-19T07:48:46;16.23;;;14.47;;
2289;SDS011;1153;47.986;7.898;2022-08-19T07:51:11;23.20;;;17.53;;
2289;SDS011;1153;47.986;7.898;2022-08-19T07:53:37;19.07;;;17.10;;
2289;SDS011;1153;47.986;7.898;2022-08-19T07:56:03;17.03;;;15.30;;
2289;SDS011;1153;47.986;7.898;2022-08-19T07:58:37;20.23;;;14.60;;
2289;SDS011;1153;47.986;7.898;2022-08-19T08:01:03;16.07;;;14.43;;
2289;SDS011;1153;47.986;7.898;2022-08-19T08:03:29;17.40;;;15.67;;
2289;SDS011;1153;47.986;7.898;2022-08-19T08:06:13;17.10;;;15.33;;
2289;SDS011;1153;47.986;7.898;2022-08-19T08:08:57;21.57;;;17.20;;
2289;SDS011;1153;47.986;7.898;2022-08-19T08:11:43;21.97;;;17.83;;
2289;SDS011;1153;47.986;7.898;2022-08-19T08:14:13;18.40;;;16.60;;
2289;SDS011;1153;47.986;7.898;2022-08-19T08:16:40;20.90;;;18.03;;
2289;SDS011;1153;47.986;7.898;2022-08-19T08:19:07;20.33;;;18.30;;
2289;SDS011;1153;47.986;7.898;2022-08-19T08:21:33;23.03;;;18.20;;
2289;SDS011;1153;47.986;7.898;2022-08-19T08:23:58;23.87;;;18.20;;
2289;SDS011;1153;47.986;7.898;2022-08-19T08:26:23;19.20;;;17.17;;
2289;SDS011;1153;47.986;7.898;2022-08-19T08:28:50;16.83;;;15.23;;
2289;SDS011;1153;47.986;7.898;2022-08-19T08:31:15;19.03;;;16.93;;
2289;SDS011;1153;47.986;7.898;2022-08-19T08:33:40;18.17;;;16.27;;
2289;SDS011;1153;47.986;7.898;2022-08-19T08:36:07;20.70;;;17.87;;
2289;SDS011;1153;47.986;7.898;2022-08-19T08:38:33;18.43;;;16.53;;
2289;SDS011;1153;47.986;7.898;2022-08-19T08:41:05;19.80;;;17.60;;
2289;SDS011;1153;47.986;7.898;2022-08-19T08:43:35;18.03;;;16.13;;
2289;SDS011;1153;47.986;7.898;2022-08-19T08:46:06;17.37;;;15.77;;
2289;SDS011;1153;47.986;7.898;2022-08-19T08:50:58;22.20;;;18.23;;
2289;SDS011;1153;47.986;7.898;2022-08-19T08:53:23;21.20;;;19.00;;
2289;SDS011;1153;47.986;7.898;2022-08-19T08:55:49;24.73;;;19.77;;
2289;SDS011;1153;47.986;7.898;2022-08-19T08:58:19;20.00;;;17.27;;
2289;SDS011;1153;47.986;7.898;2022-08-19T09:00:46;23.43;;;19.77;;
2289;SDS011;1153;47.986;7.898;2022-08-19T09:03:22;22.27;;;18.70;;
2289;SDS011;1153;47.986;7.898;2022-08-19T09:08:17;19.93;;;17.53;;
2289;SDS011;1153;47.986;7.898;2022-08-19T09:10:44;19.63;;;17.63;;
2289;SDS011;1153;47.986;7.898;2022-08-19T09:13:19;24.13;;;21.40;;
2289;SDS011;1153;47.986;7.898;2022-08-19T09:16:20;20.40;;;18.27;;
2289;SDS011;1153;47.986;7.898;2022-08-19T09:18:46;25.03;;;18.60;;
2289;SDS011;1153;47.986;7.898;2022-08-19T09:21:17;21.37;;;18.60;;
2289;SDS011;1153;47.986;7.898;2022-08-19T09:23:43;22.40;;;20.00;;
2289;SDS011;1153;47.986;7.898;2022-08-19T09:26:15;19.53;;;17.50;;
2289;SDS011;1153;47.986;7.898;2022-08-19T09:28:42;23.40;;;19.97;;
2289;SDS011;1153;47.986;7.898;2022-08-19T09:31:15;26.30;;;20.20;;
2289;SDS011;1153;47.986;7.898;2022-08-19T09:33:40;22.63;;;19.70;;
2289;SDS011;1153;47.986;7.898;2022-08-19T09:36:09;25.37;;;22.40;;
2289;SDS011;1153;47.986;7.898;2022-08-19T09:38:35;27.43;;;21.83;;
2289;SDS011;1153;47.986;7.898;2022-08-19T09:41:04;24.33;;;21.83;;
2289;SDS011;1153;47.986;7.898;2022-08-19T09:43:30;26.27;;;19.60;;
2289;SDS011;1153;47.986;7.898;2022-08-19T09:45:56;24.77;;;20.53;;
2289;SDS011;1153;47.986;7.898;2022-08-19T09:48:21;27.70;;;22.57;;
2289;SDS011;1153;47.986;7.898;2022-08-19T09:50:46;24.20;;;20.90;;
2289;SDS011;1153;47.986;7.898;2022-08-19T09:53:11;27.07;;;20.80;;
2289;SDS011;1153;47.986;7.898;2022-08-19T09:55:41;21.90;;;19.60;;
2289;SDS011;1153;47.986;7.898;2022-08-19T09:58:06;28.80;;;21.07;;
2289;SDS011;1153;47.986;7.898;2022-08-19T10:00:31;25.27;;;20.90;;
2289;SDS011;1153;47.986;7.898;2022-08-19T10:02:56;24.13;;;20.97;;
2289;SDS011;1153;47.986;7.898;2022-08-19T10:05:22;23.47;;;20.93;;
2289;SDS011;1153;47.986;7.898;2022-08-19T10:08:05;23.40;;;20.67;;
2289;SDS011;1153;47.986;7.898;2022-08-19T10:10:34;22.40;;;20.10;;
2289;SDS011;1153;47.986;7.898;2022-08-19T10:12:59;21.90;;;19.53;;
2289;SDS011;1153;47.986;7.898;2022-08-19T10:15:25;24.37;;;21.03;;
2289;SDS011;1153;47.986;7.898;2022-08-19T10:17:50;22.40;;;19.60;;
2289;SDS011;1153;47.986;7.898;2022-08-19T10:20:15;22.23;;;19.80;;
2289;SDS011;1153;47.986;7.898;2022-08-19T10:22:40;28.00;;;21.67;;
2289;SDS011;1153;47.986;7.898;2022-08-19T10:25:07;24.40;;;21.80;;
2289;SDS011;1153;47.986;7.898;2022-08-19T10:27:32;23.73;;;21.20;;
2289;SDS011;1153;47.986;7.898;2022-08-19T10:29:57;25.03;;;21.77;;
2289;SDS011;1153;47.986;7.898;2022-08-19T10:32:23;22.50;;;20.00;;
2289;SDS011;1153;47.986;7.898;2022-08-19T10:34:50;21.57;;;19.47;;
2289;SDS011;1153;47.986;7.898;2022-08-19T10:37:17;25.20;;;20.80;;
2289;SDS011;1153;47.986;7.898;2022-08-19T10:39:42;25.70;;;20.37;;
2289;SDS011;1153;47.986;7.898;2022-08-19T10:42:11;22.20;;;19.87;;
2289;SDS011;1153;47.986;7.898;2022-08-19T10:44:37;24.33;;;21.70;;
2289;SDS011;1153;47.986;7.898;2022-08-19T10:47:03;25.30;;;20.00;;
2289;SDS011;1153;47.986;7.898;2022-08-19T10:49:29;23.77;;;18.63;;
2289;SDS011;1153;47.986;7.898;2022-08-19T10:51:54;24.50;;;20.33;;
2289;SDS011;1153;47.986;7.898;2022-08-19T10:54:38;22.00;;;19.90;;
2289;SDS011;1153;47.986;7.898;2022-08-19T10:57:22;23.80;;;18.40;;
2289;SDS011;1153;47.986;7.898;2022-08-19T10:59:53;20.60;;;18.50;;
2289;SDS011;1153;47.986;7.898;2022-08-19T11:02:19;19.13;;;17.20;;
2289;SDS011;1153;47.986;7.898;2022-08-19T11:04:44;22.40;;;20.10;;
2289;SDS011;1153;47.986;7.898;2022-08-19T11:07:09;20.37;;;18.33;;
2289;SDS011;1153;47.986;7.898;2022-08-19T11:09:38;21.50;;;19.40;;
2289;SDS011;1153;47.986;7.898;2022-08-19T11:12:04;20.50;;;18.40;;
2289;SDS011;1153;47.986;7.898;2022-08-19T11:14:29;23.87;;;21.33;;
2289;SDS011;1153;47.986;7.898;2022-08-19T11:16:55;22.13;;;18.33;;
2289;SDS011;1153;47.986;7.898;2022-08-19T11:19:21;22.90;;;20.67;;
2289;SDS011;1153;47.986;7.898;2022-08-19T11:21:48;22.23;;;19.90;;
2289;SDS011;1153;47.986;7.898;2022-08-19T11:24:15;23.17;;;20.77;;
2289;SDS011;1153;47.986;7.898;2022-08-19T11:26:41;22.80;;;20.07;;
2289;SDS011;1153;47.986;7.898;2022-08-19T11:29:07;21.00;;;18.80;;
2289;SDS011;1153;47.986;7.898;2022-08-19T11:31:36;21.73;;;19.50;;
2289;SDS011;1153;47.986;7.898;2022-08-19T11:34:04;23.60;;;19.80;;
2289;SDS011;1153;47.986;7.898;2022-08-19T11:36:30;22.30;;;18.83;;
2289;SDS011;1153;47.986;7.898;2022-08-19T11:38:57;23.57;;;19.80;;
2289;SDS011;1153;47.986;7.898;2022-08-19T11:41:22;23.53;;;20.43;;
2289;SDS011;1153;47.986;7.898;2022-08-19T11:43:48;26.83;;;22.00;;
2289;SDS011;1153;47.986;7.898;2022-08-19T11:46:15;26.40;;;21.10;;
2289;SDS011;1153;47.986;7.898;2022-08-19T11:48:40;32.23;;;22.17;;
2289;SDS011;1153;47.986;7.898;2022-08-19T11:51:07;30.50;;;21.30;;
2289;SDS011;1153;47.986;7.898;2022-08-19T11:53:33;25.60;;;20.87;;
2289;SDS011;1153;47.986;7.898;2022-08-19T11:55:59;26.67;;;21.07;;
2289;SDS011;1153;47.986;7.898;2022-08-19T11:58:24;26.00;;;19.57;;
2289;SDS011;1153;47.986;7.898;2022-08-19T12:00:53;27.73;;;22.17;;
2289;SDS011;1153;47.986;7.898;2022-08-19T12:03:19;26.90;;;21.57;;
2289;SDS011;1153;47.986;7.898;2022-08-19T12:05:44;27.63;;;21.13;;
2289;SDS011;1153;47.986;7.898;2022-08-19T12:08:09;25.77;;;22.07;;
2289;SDS011;1153;47.986;7.898;2022-08-19T12:10:36;29.40;;;23.40;;
2289;SDS011;1153;47.986;7.898;2022-08-19T12:13:02;26.70;;;23.80;;
2289;SDS011;1153;47.986;7.898;2022-08-19T12:15:27;37.10;;;25.87;;
2289;SDS011;1153;47.986;7.898;2022-08-19T12:17:54;30.60;;;23.27;;
2289;SDS011;1153;47.986;7.898;2022-08-19T12:20:21;25.80;;;20.70;;
2289;SDS011;1153;47.986;7.898;2022-08-19T12:22:47;27.47;;;21.20;;
2289;SDS011;1153;47.986;7.898;2022-08-19T12:25:13;27.10;;;23.03;;
2289;SDS011;1153;47.986;7.898;2022-08-19T12:27:38;26.40;;;21.07;;
2289;SDS011;1153;47.986;7.898;2022-08-19T12:30:04;24.67;;;20.47;;
2289;SDS011;1153;47.986;7.898;2022-08-19T12:32:29;23.63;;;21.13;;
2289;SDS011;1153;47.986;7.898;2022-08-19T12:34:55;19.40;;;17.40;;
2289;SDS011;1153;47.986;7.898;2022-08-19T12:37:20;16.40;;;14.80;;
2289;SDS011;1153;47.986;7.898;2022-08-19T12:39:46;17.17;;;15.67;;
2289;SDS011;1153;47.986;7.898;2022-08-19T12:42:11;18.33;;;16.53;;
2289;SDS011;1153;47.986;7.898;2022-08-19T12:44:37;15.70;;;14.10;;
2289;SDS011;1153;47.986;7.898;2022-08-19T12:47:04;18.03;;;16.43;;
2289;SDS011;1153;47.986;7.898;2022-08-19T12:49:29;17.57;;;16.03;;
2289;SDS011;1153;47.986;7.898;2022-08-19T12:51:56;19.20;;;17.30;;
2289;SDS011;1153;47.986;7.898;2022-08-19T12:54:22;16.07;;;14.83;;
2289;SDS011;1153;47.986;7.898;2022-08-19T12:56:47;16.13;;;14.50;;
2289;SDS011;1153;47.986;7.898;2022-08-19T12:59:13;14.57;;;13.40;;
2289;SDS011;1153;47.986;7.898;2022-08-19T13:01:39;17.03;;;15.57;;
2289;SDS011;1153;47.986;7.898;2022-08-19T13:04:05;18.07;;;16.53;;
2289;SDS011;1153;47.986;7.898;2022-08-19T13:06:30;16.57;;;15.27;;
2289;SDS011;1153;47.986;7.898;2022-08-19T13:08:56;16.87;;;15.30;;
2289;SDS011;1153;47.986;7.898;2022-08-19T13:11:22;16.00;;;14.80;;
2289;SDS011;1153;47.986;7.898;2022-08-19T13:13:49;16.47;;;15.00;;
2289;SDS011;1153;47.986;7.898;2022-08-19T13:16:15;14.00;;;13.00;;
2289;SDS011;1153;47.986;7.898;2022-08-19T13:18:41;16.37;;;15.00;;
2289;SDS011;1153;47.986;7.898;2022-08-19T13:21:07;17.03;;;15.57;;
2289;SDS011;1153;47.986;7.898;2022-08-19T13:23:33;14.00;;;13.20;;
2289;SDS011;1153;47.986;7.898;2022-08-19T13:25:59;16.73;;;15.20;;
2289;SDS011;1153;47.986;7.898;2022-08-19T13:28:25;15.63;;;14.50;;
2289;SDS011;1153;47.986;7.898;2022-08-19T13:30:51;18.70;;;16.90;;
2289;SDS011;1153;47.986;7.898;2022-08-19T13:33:34;16.60;;;15.27;;
2289;SDS011;1153;47.986;7.898;2022-08-19T13:36:00;14.20;;;13.30;;
2289;SDS011;1153;47.986;7.898;2022-08-19T13:38:32;17.20;;;15.90;;
2289;SDS011;1153;47.986;7.898;2022-08-19T13:40:57;14.97;;;13.77;;
2289;SDS011;1153;47.986;7.898;2022-08-19T13:43:28;17.77;;;16.13;;
2289;SDS011;1153;47.986;7.898;2022-08-19T13:45:54;16.30;;;14.73;;
2289;SDS011;1153;47.986;7.898;2022-08-19T13:48:20;15.87;;;14.67;;
2289;SDS011;1153;47.986;7.898;2022-08-19T13:50:46;13.87;;;12.97;;
2289;SDS011;1153;47.986;7.898;2022-08-19T13:53:13;13.87;;;12.60;;
2289;SDS011;1153;47.986;7.898;2022-08-19T13:55:39;13.90;;;12.67;;
2289;SDS011;1153;47.986;7.898;2022-08-19T13:58:04;13.80;;;12.83;;
2289;SDS011;1153;47.986;7.898;2022-08-19T14:00:31;13.17;;;11.90;;
2289;SDS011;1153;47.986;7.898;2022-08-19T14:02:58;12.83;;;12.00;;
2289;SDS011;1153;47.986;7.898;2022-08-19T14:05:24;14.60;;;13.23;;
2289;SDS011;1153;47.986;7.898;2022-08-19T14:07:50;13.43;;;12.43;;
2289;SDS011;1153;47.986;7.898;2022-08-19T14:10:15;14.43;;;12.60;;
2289;SDS011;1153;47.986;7.898;2022-08-19T14:12:41;14.30;;;13.30;;
2289;SDS011;1153;47.986;7.898;2022-08-19T14:15:07;15.83;;;14.70;;
2289;SDS011;1153;47.986;7.898;2022-08-19T14:17:33;13.37;;;12.30;;
2289;SDS011;1153;47.986;7.898;2022-08-19T14:20:00;13.33;;;12.27;;
2289;SDS011;1153;47.986;7.898;2022-08-19T14:22:28;12.17;;;11.37;;
2289;SDS011;1153;47.986;7.898;2022-08-19T14:24:53;11.83;;;11.03;;
2289;SDS011;1153;47.986;7.898;2022-08-19T14:27:19;12.07;;;11.30;;
2289;SDS011;1153;47.986;7.898;2022-08-19T14:29:44;13.20;;;12.10;;
2289;SDS011;1153;47.986;7.898;2022-08-19T14:32:10;10.97;;;10.43;;
2289;SDS011;1153;47.986;7.898;2022-08-19T14:34:35;11.57;;;11.10;;
2289;SDS011;1153;47.986;7.898;2022-08-19T14:37:02;11.20;;;10.30;;
2289;SDS011;1153;47.986;7.898;2022-08-19T14:39:27;11.07;;;10.20;;
2289;SDS011;1153;47.986;7.898;2022-08-19T14:41:52;11.83;;;11.00;;
2289;SDS011;1153;47.986;7.898;2022-08-19T14:44:17;11.90;;;11.03;;
2289;SDS011;1153;47.986;7.898;2022-08-19T14:46:43;12.07;;;11.37;;
2289;SDS011;1153;47.986;7.898;2022-08-19T14:49:09;13.30;;;12.50;;
2289;SDS011;1153;47.986;7.898;2022-08-19T14:51:34;13.57;;;12.70;;
2289;SDS011;1153;47.986;7.898;2022-08-19T14:53:59;14.10;;;12.77;;
2289;SDS011;1153;47.986;7.898;2022-08-19T14:56:26;13.10;;;12.03;;